Time;durP1;ratioP1;P1;durP2;ratioP2;P2;SDS_P1;SDS_P2;PMS_P1;PMS_P2;Temp;Humidity;BMP_temperature;BMP_pressure;BME280_temperature;BME280_humidity;BME280_pressure;Samples;Min_cycle;Max_cycle;Signal;HPM_P1;HPM_P2
2022/03/27 00:00:33;;;;;;;;;;;13.40;81.80;;;;;;5033162;28;20354;-66
2022/03/27 00:02:58;;;;;;;;;;;13.30;82.30;;;;;;5032900;28;19928;-66
2022/03/27 00:05:24;;;;;;;;;;;13.30;82.30;;;;;;5032636;28;20235;-67
2022/03/27 00:07:49;;;;;;;;;;;13.20;83.40;;;;;;5033083;28;19909;-66
2022/03/27 00:10:14;;;;;;;;;;;13.20;83.50;;;;;;5033013;28;19920;-67
2022/03/27 00:12:40;;;;;;;;;;;13.20;83.40;;;;;;5055051;28;19987;-65
2022/03/27 00:15:06;;;;;;;;;;;13.20;83.40;;;;;;5036035;28;19909;-66
2022/03/27 00:17:33;;;;;;;;;;;13.20;83.50;;;;;;5036904;28;19948;-65
2022/03/27 00:19:59;;;;;;;;;;;13.20;83.70;;;;;;5054720;28;19909;-65
2022/03/27 00:22:26;;;;;;;;;;;13.10;84.10;;;;;;5054089;28;19980;-65
2022/03/27 00:24:51;;;;;;;;;;;13.10;84.60;;;;;;5054822;28;19909;-65
2022/03/27 00:27:17;;;;;;;;;;;13.00;84.90;;;;;;5054002;28;19920;-65
2022/03/27 00:29:42;;;;;;;;;;;13.10;85.00;;;;;;5054412;28;19967;-66
2022/03/27 00:32:08;;;;;;;;;;;13.00;85.20;;;;;;5053907;28;19919;-66
2022/03/27 00:34:33;;;;;;;;;;;13.00;85.70;;;;;;5054219;28;19966;-66
2022/03/27 00:36:59;;;;;;;;;;;13.00;85.70;;;;;;5036325;28;19966;-65
2022/03/27 00:39:24;;;;;;;;;;;13.00;85.90;;;;;;5035444;28;19964;-65
2022/03/27 00:41:51;;;;;;;;;;;13.10;85.90;;;;;;5036251;28;20012;-65
2022/03/27 00:44:17;;;;;;;;;;;13.00;86.00;;;;;;5053779;28;19916;-65
2022/03/27 00:46:42;;;;;;;;;;;13.00;86.60;;;;;;5035887;28;19909;-65
2022/03/27 00:49:08;;;;;;;;;;;13.00;86.70;;;;;;5035481;28;19913;-66
2022/03/27 00:51:33;;;;;;;;;;;13.00;86.80;;;;;;5036400;28;19955;-65
2022/03/27 00:53:59;;;;;;;;;;;12.90;87.30;;;;;;5035797;28;19909;-66
2022/03/27 00:56:25;;;;;;;;;;;13.00;86.90;;;;;;5035458;28;20150;-66
2022/03/27 00:58:50;;;;;;;;;;;13.00;87.30;;;;;;5053897;28;19955;-66
2022/03/27 01:01:24;;;;;;;;;;;13.00;87.70;;;;;;5053555;28;19948;-65
2022/03/27 01:03:53;;;;;;;;;;;12.90;88.20;;;;;;5036085;28;19921;-66
2022/03/27 01:06:32;;;;;;;;;;;12.80;88.60;;;;;;5035361;28;20441;-65
2022/03/27 01:11:42;;;;;;;;;;;12.80;88.90;;;;;;5053899;28;20341;-65
2022/03/27 01:14:09;;;;;;;;;;;12.70;89.70;;;;;;5035177;28;19917;-66
2022/03/27 01:16:45;;;;;;;;;;;12.70;90.00;;;;;;5035851;28;19978;-65
2022/03/27 01:19:12;;;;;;;;;;;12.70;90.10;;;;;;5035163;28;20015;-66
2022/03/27 01:21:40;;;;;;;;;;;12.70;90.10;;;;;;5035676;28;19909;-67
2022/03/27 01:24:06;;;;;;;;;;;12.80;90.10;;;;;;5035733;28;19958;-66
2022/03/27 01:26:32;;;;;;;;;;;12.70;90.10;;;;;;5035137;28;20312;-66
2022/03/27 01:28:57;;;;;;;;;;;12.70;90.30;;;;;;5053204;28;20406;-66
2022/03/27 01:31:23;;;;;;;;;;;12.70;90.50;;;;;;5053328;28;19913;-66
2022/03/27 01:33:48;;;;;;;;;;;12.60;90.80;;;;;;5035414;28;19999;-66
2022/03/27 01:36:23;;;;;;;;;;;12.70;90.80;;;;;;5034208;28;20147;-65
2022/03/27 01:38:52;;;;;;;;;;;12.70;90.90;;;;;;5035310;28;19908;-65
2022/03/27 01:41:18;;;;;;;;;;;12.60;91.20;;;;;;5052442;28;20006;-64
2022/03/27 01:43:44;;;;;;;;;;;12.50;91.40;;;;;;5052715;28;19909;-66
2022/03/27 01:46:09;;;;;;;;;;;12.50;91.50;;;;;;5034468;28;19909;-67
2022/03/27 01:48:35;;;;;;;;;;;12.50;91.70;;;;;;5052800;28;19962;-66
2022/03/27 01:51:00;;;;;;;;;;;12.50;91.70;;;;;;5035004;28;19913;-65
2022/03/27 01:53:26;;;;;;;;;;;12.50;92.00;;;;;;5052409;28;19955;-66
2022/03/27 01:55:52;;;;;;;;;;;12.50;92.00;;;;;;5034886;28;20335;-65
2022/03/27 01:58:17;;;;;;;;;;;12.50;92.10;;;;;;5034346;28;20380;-65
2022/03/27 02:00:43;;;;;;;;;;;12.50;92.10;;;;;;5052804;28;19915;-66
2022/03/27 02:03:09;;;;;;;;;;;12.50;92.10;;;;;;5034230;28;19921;-66
2022/03/27 02:05:35;;;;;;;;;;;12.40;92.30;;;;;;5052843;28;19925;-65
2022/03/27 02:08:00;;;;;;;;;;;12.40;92.40;;;;;;5052803;28;20324;-66
2022/03/27 02:10:26;;;;;;;;;;;12.40;92.50;;;;;;5033985;28;19913;-65
2022/03/27 02:12:52;;;;;;;;;;;12.50;92.60;;;;;;5034640;28;19958;-66
2022/03/27 02:15:17;;;;;;;;;;;12.60;92.60;;;;;;5051957;28;20242;-66
2022/03/27 02:17:43;;;;;;;;;;;12.50;92.80;;;;;;5034509;28;19909;-65
2022/03/27 02:20:09;;;;;;;;;;;12.40;92.90;;;;;;5052583;28;19909;-66
2022/03/27 02:22:34;;;;;;;;;;;12.50;93.00;;;;;;5033777;28;20347;-66
2022/03/27 02:25:00;;;;;;;;;;;12.60;92.90;;;;;;5034435;28;19916;-65
2022/03/27 02:27:25;;;;;;;;;;;12.50;93.20;;;;;;5033708;28;19909;-65
2022/03/27 02:29:51;;;;;;;;;;;12.50;93.10;;;;;;5052280;28;20379;-66
2022/03/27 02:32:16;;;;;;;;;;;12.50;93.20;;;;;;5033641;28;19913;-66
2022/03/27 02:34:42;;;;;;;;;;;12.40;93.40;;;;;;5051931;28;19916;-66
2022/03/27 02:37:08;;;;;;;;;;;12.50;93.50;;;;;;5052320;28;20012;-65
2022/03/27 02:39:33;;;;;;;;;;;12.50;93.50;;;;;;5033623;28;19909;-67
2022/03/27 02:41:59;;;;;;;;;;;12.50;93.60;;;;;;5034290;28;20398;-65
2022/03/27 02:44:24;;;;;;;;;;;12.40;93.70;;;;;;5033559;28;19909;-65
2022/03/27 02:46:50;;;;;;;;;;;12.40;94.00;;;;;;5052044;28;19951;-65
2022/03/27 02:49:16;;;;;;;;;;;12.40;94.10;;;;;;5033422;28;19913;-66
2022/03/27 02:51:44;;;;;;;;;;;12.40;94.30;;;;;;5034010;28;19913;-66
2022/03/27 02:54:10;;;;;;;;;;;12.30;94.30;;;;;;5051898;28;19908;-65
2022/03/27 02:56:35;;;;;;;;;;;12.40;94.40;;;;;;5051394;28;19970;-65
2022/03/27 02:59:01;;;;;;;;;;;12.40;94.50;;;;;;5051837;28;19983;-65
2022/03/27 03:01:26;;;;;;;;;;;12.40;94.60;;;;;;5051203;28;19955;-66
2022/03/27 03:03:52;;;;;;;;;;;12.40;94.70;;;;;;5033571;28;19921;-66
2022/03/27 03:06:18;;;;;;;;;;;12.30;94.90;;;;;;5033294;28;19916;-65
2022/03/27 03:08:44;;;;;;;;;;;12.30;94.90;;;;;;5051643;28;20404;-65
2022/03/27 03:11:13;;;;;;;;;;;12.20;95.30;;;;;;5033931;28;19913;-66
2022/03/27 03:13:39;;;;;;;;;;;12.20;95.40;;;;;;5051698;28;19913;-66
2022/03/27 03:16:06;;;;;;;;;;;12.20;95.40;;;;;;5033879;28;20273;-66
2022/03/27 03:18:33;;;;;;;;;;;12.20;95.60;;;;;;5033184;28;19971;-66
2022/03/27 03:20:58;;;;;;;;;;;12.20;95.80;;;;;;5051704;28;20007;-65
2022/03/27 03:23:24;;;;;;;;;;;12.20;96.10;;;;;;5033100;28;20346;-65
2022/03/27 03:25:49;;;;;;;;;;;12.10;96.40;;;;;;5033754;28;19963;-65
2022/03/27 03:28:15;;;;;;;;;;;12.10;96.50;;;;;;5032845;28;19960;-67
2022/03/27 03:30:40;;;;;;;;;;;12.00;96.80;;;;;;5051642;28;19912;-65
2022/03/27 03:33:07;;;;;;;;;;;12.00;97.00;;;;;;5033434;28;19916;-65
2022/03/27 03:35:34;;;;;;;;;;;12.10;97.00;;;;;;5032955;28;20273;-66
2022/03/27 03:37:59;;;;;;;;;;;12.10;96.90;;;;;;5033578;28;20357;-65
2022/03/27 03:40:26;;;;;;;;;;;12.20;97.10;;;;;;5033042;28;19909;-65
2022/03/27 03:42:51;;;;;;;;;;;12.10;97.30;;;;;;5033416;28;19914;-65
2022/03/27 03:45:18;;;;;;;;;;;12.10;97.50;;;;;;5050873;28;20025;-65
2022/03/27 03:47:43;;;;;;;;;;;12.10;97.80;;;;;;5055414;28;19996;-65
2022/03/27 03:50:10;;;;;;;;;;;12.10;98.00;;;;;;5055338;28;20370;-65
2022/03/27 03:52:35;;;;;;;;;;;12.10;97.90;;;;;;5036673;28;20247;-65
2022/03/27 03:55:01;;;;;;;;;;;12.00;98.20;;;;;;5037087;28;20338;-67
2022/03/27 03:57:26;;;;;;;;;;;12.00;98.50;;;;;;5036736;28;19966;-66
2022/03/27 03:59:52;;;;;;;;;;;12.00;98.70;;;;;;5037203;28;19909;-66
2022/03/27 04:02:19;;;;;;;;;;;11.90;98.80;;;;;;5054292;28;19936;-65
2022/03/27 04:04:45;;;;;;;;;;;12.00;99.00;;;;;;5055345;28;20012;-65
2022/03/27 04:07:10;;;;;;;;;;;12.00;99.00;;;;;;5037114;28;19909;-65
2022/03/27 04:09:36;;;;;;;;;;;11.90;99.20;;;;;;5054143;28;20099;-65
2022/03/27 04:12:02;;;;;;;;;;;12.00;99.30;;;;;;5037069;28;19920;-65
2022/03/27 04:14:29;;;;;;;;;;;11.80;99.70;;;;;;5054337;28;19913;-65
2022/03/27 04:16:56;;;;;;;;;;;11.90;99.90;;;;;;5036948;28;19983;-65
2022/03/27 04:19:22;;;;;;;;;;;11.80;99.90;;;;;;5053210;28;19920;-66
2022/03/27 04:21:47;;;;;;;;;;;11.90;99.90;;;;;;5036535;28;19913;-65
2022/03/27 04:24:13;;;;;;;;;;;12.00;99.90;;;;;;5054563;28;19909;-65
2022/03/27 04:26:41;;;;;;;;;;;11.90;99.90;;;;;;5053777;28;19952;-65
2022/03/27 04:29:07;;;;;;;;;;;11.80;99.90;;;;;;5036670;28;19917;-66
2022/03/27 04:31:33;;;;;;;;;;;11.80;99.90;;;;;;5053762;28;20254;-65
2022/03/27 04:33:58;;;;;;;;;;;11.90;99.90;;;;;;5036449;28;19913;-65
2022/03/27 04:36:24;;;;;;;;;;;11.80;99.90;;;;;;5035941;28;19913;-66
2022/03/27 04:38:50;;;;;;;;;;;11.80;99.90;;;;;;5054239;28;19909;-65
2022/03/27 04:41:16;;;;;;;;;;;11.80;99.90;;;;;;5054331;28;19915;-66
2022/03/27 04:43:43;;;;;;;;;;;11.80;99.90;;;;;;5053435;28;19909;-65
2022/03/27 04:46:08;;;;;;;;;;;11.80;99.90;;;;;;5054257;28;19944;-65
2022/03/27 04:48:34;;;;;;;;;;;11.60;99.90;;;;;;5053612;28;20342;-65
2022/03/27 04:51:00;;;;;;;;;;;11.60;99.90;;;;;;5036325;28;19917;-66
2022/03/27 04:53:25;;;;;;;;;;;11.70;99.90;;;;;;5035674;28;19974;-65
2022/03/27 04:55:51;;;;;;;;;;;11.70;99.90;;;;;;5054281;28;20318;-65
2022/03/27 04:58:17;;;;;;;;;;;11.70;99.90;;;;;;5053834;28;20407;-65
2022/03/27 05:00:43;;;;;;;;;;;11.60;99.90;;;;;;5035521;28;19909;-65
2022/03/27 05:03:08;;;;;;;;;;;11.60;99.90;;;;;;5053738;28;19921;-65
2022/03/27 05:05:34;;;;;;;;;;;11.60;99.90;;;;;;5035321;28;19925;-65
2022/03/27 05:08:00;;;;;;;;;;;11.60;99.90;;;;;;5035989;28;19916;-65
2022/03/27 05:10:25;;;;;;;;;;;11.50;99.90;;;;;;5035529;28;19919;-67
2022/03/27 05:12:51;;;;;;;;;;;11.60;99.90;;;;;;5035905;28;19909;-65
2022/03/27 05:15:16;;;;;;;;;;;11.60;99.90;;;;;;5053648;28;19971;-66
2022/03/27 05:17:46;;;;;;;;;;;11.60;99.90;;;;;;5035326;28;19915;-66
2022/03/27 05:20:12;;;;;;;;;;;11.70;99.90;;;;;;5035610;28;19912;-65
2022/03/27 05:22:37;;;;;;;;;;;11.60;99.90;;;;;;5034889;28;19913;-66
2022/03/27 05:25:03;;;;;;;;;;;11.60;99.90;;;;;;5053873;28;19908;-66
2022/03/27 05:27:28;;;;;;;;;;;11.50;99.90;;;;;;5052660;28;19921;-65
2022/03/27 05:29:54;;;;;;;;;;;11.60;99.90;;;;;;5035342;28;19920;-65
2022/03/27 05:32:19;;;;;;;;;;;11.60;99.90;;;;;;5035291;28;19949;-65
2022/03/27 05:34:45;;;;;;;;;;;11.60;99.90;;;;;;5034920;28;19971;-65
2022/03/27 05:37:10;;;;;;;;;;;11.50;99.90;;;;;;5053350;28;19909;-66
2022/03/27 05:39:36;;;;;;;;;;;11.50;99.90;;;;;;5052801;28;20262;-67
2022/03/27 05:42:01;;;;;;;;;;;11.50;99.90;;;;;;5035277;28;19996;-64
2022/03/27 05:44:27;;;;;;;;;;;11.40;99.90;;;;;;5052609;28;19912;-66
2022/03/27 05:46:52;;;;;;;;;;;11.40;99.90;;;;;;5053613;28;20055;-65
2022/03/27 05:49:18;;;;;;;;;;;11.50;99.90;;;;;;5035068;28;19920;-64
2022/03/27 05:51:44;;;;;;;;;;;11.60;99.90;;;;;;5034283;28;19917;-65
2022/03/27 05:54:09;;;;;;;;;;;11.60;99.90;;;;;;5052998;28;19909;-64
2022/03/27 05:56:35;;;;;;;;;;;11.50;99.90;;;;;;5034214;28;19909;-65
2022/03/27 05:59:01;;;;;;;;;;;11.60;99.90;;;;;;5034809;28;19908;-66
2022/03/27 06:01:26;;;;;;;;;;;11.50;99.90;;;;;;5052136;28;19913;-63
2022/03/27 06:03:52;;;;;;;;;;;11.60;99.90;;;;;;5052351;28;19952;-65
2022/03/27 06:06:17;;;;;;;;;;;11.70;99.90;;;;;;5034685;28;20015;-66
2022/03/27 06:08:43;;;;;;;;;;;11.80;99.90;;;;;;5033251;28;19919;-65
2022/03/27 06:11:08;;;;;;;;;;;11.90;99.90;;;;;;5034169;28;19919;-66
2022/03/27 06:13:34;;;;;;;;;;;11.90;99.90;;;;;;5052196;28;19920;-65
2022/03/27 06:15:59;;;;;;;;;;;12.00;99.90;;;;;;5052481;28;20018;-65
2022/03/27 06:18:25;;;;;;;;;;;12.00;99.90;;;;;;5033776;28;19909;-71
2022/03/27 06:20:50;;;;;;;;;;;12.10;99.90;;;;;;5034423;28;19948;-66
2022/03/27 06:23:16;;;;;;;;;;;12.10;99.90;;;;;;5052572;28;19916;-64
2022/03/27 06:25:41;;;;;;;;;;;12.10;99.90;;;;;;5051551;28;19948;-64
2022/03/27 06:28:07;;;;;;;;;;;12.10;99.90;;;;;;5052423;28;20384;-64
2022/03/27 06:30:34;;;;;;;;;;;12.20;99.90;;;;;;5033426;28;19924;-65
2022/03/27 06:33:00;;;;;;;;;;;12.40;99.90;;;;;;5052165;28;19924;-66
2022/03/27 06:35:26;;;;;;;;;;;12.50;99.90;;;;;;5033592;28;19913;-72
2022/03/27 06:37:52;;;;;;;;;;;12.60;99.90;;;;;;5052465;28;20265;-64
2022/03/27 06:40:19;;;;;;;;;;;12.80;99.90;;;;;;5051988;28;19919;-64
2022/03/27 06:42:45;;;;;;;;;;;12.90;99.90;;;;;;5050975;28;20404;-64
2022/03/27 06:45:14;;;;;;;;;;;13.00;99.90;;;;;;5051821;28;19909;-64
2022/03/27 06:47:40;;;;;;;;;;;13.10;99.90;;;;;;5032999;28;19909;-65
2022/03/27 06:50:06;;;;;;;;;;;13.30;99.90;;;;;;5051665;28;19935;-64
2022/03/27 06:52:32;;;;;;;;;;;13.50;99.70;;;;;;5033205;28;19996;-65
2022/03/27 06:54:57;;;;;;;;;;;13.70;99.10;;;;;;5033670;28;19920;-64
2022/03/27 06:57:23;;;;;;;;;;;13.80;98.90;;;;;;5052206;28;19934;-64
2022/03/27 07:05:18;;;;;;;;;;;14.60;97.10;;;;;;5051876;28;19975;-65
2022/03/27 07:07:44;;;;;;;;;;;14.70;96.50;;;;;;5045525;28;19955;-66
2022/03/27 07:10:10;;;;;;;;;;;14.90;96.00;;;;;;5040796;28;19956;-64
2022/03/27 07:12:36;;;;;;;;;;;15.00;95.80;;;;;;5013208;28;19913;-65
2022/03/27 07:15:02;;;;;;;;;;;15.20;95.40;;;;;;5014109;28;20012;-65
2022/03/27 07:17:27;;;;;;;;;;;15.20;95.30;;;;;;5013854;28;19913;-66
2022/03/27 07:19:53;;;;;;;;;;;15.40;95.40;;;;;;5013132;28;19909;-65
2022/03/27 07:22:18;;;;;;;;;;;15.40;94.90;;;;;;5031343;28;20196;-66
2022/03/27 07:24:45;;;;;;;;;;;15.70;94.50;;;;;;5031032;28;19909;-66
2022/03/27 07:27:11;;;;;;;;;;;15.80;94.30;;;;;;5013810;28;19919;-64
2022/03/27 07:29:37;;;;;;;;;;;15.90;93.80;;;;;;5013176;28;20222;-66
2022/03/27 07:32:05;;;;;;;;;;;16.10;93.50;;;;;;5031756;28;19913;-67
2022/03/27 07:34:31;;;;;;;;;;;16.30;93.10;;;;;;5030899;28;19913;-64
2022/03/27 07:36:56;;;;;;;;;;;16.20;92.80;;;;;;5013649;28;20236;-65
2022/03/27 07:39:22;;;;;;;;;;;16.40;92.90;;;;;;5031271;28;20390;-67
2022/03/27 07:41:47;;;;;;;;;;;16.60;93.10;;;;;;5031018;28;19913;-64
2022/03/27 07:44:13;;;;;;;;;;;16.80;93.30;;;;;;5030916;28;19909;-66
2022/03/27 07:46:38;;;;;;;;;;;16.90;92.90;;;;;;5013138;28;19909;-67
2022/03/27 07:49:04;;;;;;;;;;;17.10;92.90;;;;;;5030916;28;20017;-66
2022/03/27 07:51:30;;;;;;;;;;;17.50;98.80;;;;;;5031098;28;19917;-66
2022/03/27 07:53:55;;;;;;;;;;;17.90;95.20;;;;;;5038212;28;19913;-69
2022/03/27 07:56:21;;;;;;;;;;;17.70;93.60;;;;;;5028726;28;19959;-69
2022/03/27 07:58:46;;;;;;;;;;;18.00;93.40;;;;;;5016996;28;19913;-70
2022/03/27 08:01:15;;;;;;;;;;;18.00;94.00;;;;;;5046123;28;20019;-71
2022/03/27 08:03:41;;;;;;;;;;;18.10;92.30;;;;;;5008103;28;19929;-71
2022/03/27 08:06:07;;;;;;;;;;;18.50;93.90;;;;;;5007082;28;19918;-71
2022/03/27 08:08:33;;;;;;;;;;;18.70;95.00;;;;;;5005715;28;20076;-72
2022/03/27 08:10:58;;;;;;;;;;;19.10;93.00;;;;;;5003447;28;20055;-66
2022/03/27 08:13:24;;;;;;;;;;;19.00;89.10;;;;;;4992714;28;19924;-66
2022/03/27 08:15:49;;;;;;;;;;;19.20;87.60;;;;;;4989641;28;19945;-66
2022/03/27 08:18:15;;;;;;;;;;;19.30;87.30;;;;;;4997245;28;19914;-68
2022/03/27 08:20:41;;;;;;;;;;;19.40;86.00;;;;;;4999330;28;19924;-66
2022/03/27 08:23:07;;;;;;;;;;;19.40;86.20;;;;;;5003597;28;19921;-66
2022/03/27 08:28:19;;;;;;;;;;;19.70;84.80;;;;;;4995832;28;19955;-66
2022/03/27 08:30:45;;;;;;;;;;;20.00;84.10;;;;;;5004219;28;19917;-69
2022/03/27 08:33:11;;;;;;;;;;;20.10;85.90;;;;;;4999927;28;20371;-67
2022/03/27 08:35:41;;;;;;;;;;;20.20;87.10;;;;;;5009309;28;19960;-68
2022/03/27 08:38:11;;;;;;;;;;;20.60;88.00;;;;;;5006246;28;19910;-69
2022/03/27 08:40:38;;;;;;;;;;;20.40;84.50;;;;;;4996534;28;20346;-67
2022/03/27 08:43:17;;;;;;;;;;;20.90;84.60;;;;;;5003436;28;19914;-67
2022/03/27 08:45:43;;;;;;;;;;;21.20;81.70;;;;;;4992603;28;19910;-67
2022/03/27 08:48:09;;;;;;;;;;;21.40;80.40;;;;;;4994414;28;19910;-67
2022/03/27 08:50:42;;;;;;;;;;;21.40;79.20;;;;;;4993668;28;20371;-71
2022/03/27 08:53:11;;;;;;;;;;;21.70;79.50;;;;;;5008486;28;20274;-67
2022/03/27 08:55:57;;;;;;;;;;;21.60;78.60;;;;;;4994216;28;20320;-66
2022/03/27 08:58:29;;;;;;;;;;;21.70;79.10;;;;;;4998526;28;19910;-67
2022/03/27 09:00:55;;;;;;;;;;;21.70;78.60;;;;;;5006542;28;20021;-67
2022/03/27 09:03:21;;;;;;;;;;;21.90;78.40;;;;;;5030752;28;19925;-67
2022/03/27 09:05:47;;;;;;;;;;;22.20;77.90;;;;;;5032554;28;19913;-67
2022/03/27 09:08:12;;;;;;;;;;;21.80;76.30;;;;;;5032755;28;20014;-68
2022/03/27 09:10:40;;;;;;;;;;;21.90;78.00;;;;;;5032515;28;19968;-67
2022/03/27 09:13:09;;;;;;;;;;;22.10;76.30;;;;;;5033236;28;19919;-67
2022/03/27 09:15:34;;;;;;;;;;;22.00;77.40;;;;;;5015115;28;19909;-68
2022/03/27 09:18:09;;;;;;;;;;;22.20;76.40;;;;;;5015049;28;20095;-68
2022/03/27 09:20:36;;;;;;;;;;;22.60;76.20;;;;;;5048125;28;20262;-66
2022/03/27 09:23:21;;;;;;;;;;;22.80;75.60;;;;;;5024321;28;19928;-67
2022/03/27 09:25:57;;;;;;;;;;;23.20;74.80;;;;;;5039712;28;19967;-67
2022/03/27 09:28:28;;;;;;;;;;;23.50;73.50;;;;;;5033044;28;20008;-67
2022/03/27 09:30:54;;;;;;;;;;;23.50;73.60;;;;;;5032605;28;20361;-67
2022/03/27 09:33:31;;;;;;;;;;;23.70;72.90;;;;;;5025380;28;20345;-67
2022/03/27 09:36:07;;;;;;;;;;;24.00;72.30;;;;;;5040703;28;19917;-67
2022/03/27 09:38:33;;;;;;;;;;;24.20;71.80;;;;;;5025031;28;19910;-68
2022/03/27 09:40:58;;;;;;;;;;;23.70;72.80;;;;;;5031807;28;19923;-67
2022/03/27 09:43:24;;;;;;;;;;;23.00;72.30;;;;;;5033958;28;20000;-67
2022/03/27 09:45:57;;;;;;;;;;;23.20;72.30;;;;;;5040474;28;19967;-68
2022/03/27 09:48:23;;;;;;;;;;;23.70;72.50;;;;;;5040347;28;19960;-68
2022/03/27 09:50:50;;;;;;;;;;;22.90;73.40;;;;;;5045960;28;19917;-67
2022/03/27 09:53:25;;;;;;;;;;;23.30;72.20;;;;;;5041859;28;20384;-67
2022/03/27 09:56:10;;;;;;;;;;;24.00;72.00;;;;;;5032501;28;20004;-68
2022/03/27 09:58:39;;;;;;;;;;;24.20;70.20;;;;;;5028569;28;19963;-67
2022/03/27 10:01:08;;;;;;;;;;;24.50;70.30;;;;;;5051786;28;20311;-68
2022/03/27 10:03:34;;;;;;;;;;;24.70;69.90;;;;;;5051195;28;19936;-68
2022/03/27 10:06:01;;;;;;;;;;;25.10;69.30;;;;;;5033336;28;19999;-67
2022/03/27 10:08:27;;;;;;;;;;;25.30;67.60;;;;;;5051741;28;19920;-68
2022/03/27 10:10:53;;;;;;;;;;;25.50;67.30;;;;;;5051287;28;19991;-68
2022/03/27 10:13:21;;;;;;;;;;;25.50;66.10;;;;;;5034081;28;19919;-68
2022/03/27 10:15:50;;;;;;;;;;;25.60;66.30;;;;;;5033646;28;19908;-67
2022/03/27 10:18:20;;;;;;;;;;;25.90;66.00;;;;;;5051997;28;19970;-68
2022/03/27 10:20:47;;;;;;;;;;;25.80;65.70;;;;;;5051126;28;19955;-67
2022/03/27 10:23:27;;;;;;;;;;;26.00;66.30;;;;;;5013011;28;19919;-69
2022/03/27 10:25:53;;;;;;;;;;;26.60;65.30;;;;;;5026146;28;19987;-70
2022/03/27 10:28:20;;;;;;;;;;;26.60;63.70;;;;;;5023919;28;20047;-68
2022/03/27 10:30:49;;;;;;;;;;;26.80;63.50;;;;;;5036939;28;19921;-68
2022/03/27 10:33:15;;;;;;;;;;;27.00;62.40;;;;;;5042231;28;19917;-69
2022/03/27 10:35:55;;;;;;;;;;;27.10;61.50;;;;;;5045349;28;19920;-79
2022/03/27 10:38:21;;;;;;;;;;;26.70;60.70;;;;;;5027238;28;19917;-72
2022/03/27 10:41:05;;;;;;;;;;;26.90;60.50;;;;;;5027232;28;19939;-79
2022/03/27 10:43:34;;;;;;;;;;;26.80;60.90;;;;;;5027105;28;20349;-77
2022/03/27 10:46:12;;;;;;;;;;;27.10;61.50;;;;;;5033794;28;19984;-69
2022/03/27 10:48:42;;;;;;;;;;;27.30;61.50;;;;;;5033553;28;20015;-68
2022/03/27 10:51:07;;;;;;;;;;;26.70;63.20;;;;;;5050759;28;19999;-70
2022/03/27 10:53:33;;;;;;;;;;;27.00;61.50;;;;;;5050525;28;19955;-68
2022/03/27 10:55:58;;;;;;;;;;;27.00;61.00;;;;;;5049996;28;20369;-69
2022/03/27 10:58:28;;;;;;;;;;;27.40;60.40;;;;;;5050956;28;19909;-68
2022/03/27 11:00:54;;;;;;;;;;;27.30;65.80;;;;;;5050046;28;19909;-68
2022/03/27 11:03:38;;;;;;;;;;;26.80;59.70;;;;;;5032212;28;19978;-68
2022/03/27 11:06:03;;;;;;;;;;;26.10;61.40;;;;;;5032069;28;19913;-68
2022/03/27 11:08:29;;;;;;;;;;;26.10;62.90;;;;;;5050885;28;20269;-64
2022/03/27 11:10:58;;;;;;;;;;;25.50;59.00;;;;;;5049890;28;19912;-63
2022/03/27 11:13:26;;;;;;;;;;;24.70;60.90;;;;;;5050624;28;20011;-57
2022/03/27 11:16:05;;;;;;;;;;;25.40;61.90;;;;;;5046080;28;20315;-73
2022/03/27 11:18:41;;;;;;;;;;;26.00;60.10;;;;;;5031729;28;19996;-73
2022/03/27 11:21:08;;;;;;;;;;;26.50;58.00;;;;;;5031854;28;19970;-73
2022/03/27 11:23:36;;;;;;;;;;;27.10;56.10;;;;;;5024288;28;19912;-73
2022/03/27 11:26:03;;;;;;;;;;;27.60;55.00;;;;;;5033704;28;19917;-74
2022/03/27 11:28:45;;;;;;;;;;;27.60;54.30;;;;;;5015255;28;20062;-70
2022/03/27 11:31:10;;;;;;;;;;;27.70;57.10;;;;;;5043564;28;19912;-70
2022/03/27 11:33:37;;;;;;;;;;;27.20;57.00;;;;;;5023452;28;20400;-71
2022/03/27 11:36:09;;;;;;;;;;;26.50;59.70;;;;;;5034705;28;20051;-71
2022/03/27 11:38:52;;;;;;;;;;;26.20;58.80;;;;;;5030202;28;19932;-71
2022/03/27 11:41:25;;;;;;;;;;;25.60;59.70;;;;;;5012267;28;19913;-70
2022/03/27 11:43:51;;;;;;;;;;;25.30;61.70;;;;;;5033901;28;19913;-71
2022/03/27 11:46:27;;;;;;;;;;;25.10;62.20;;;;;;5029012;28;19909;-73
2022/03/27 11:48:56;;;;;;;;;;;25.50;60.80;;;;;;5029068;28;20012;-71
2022/03/27 11:51:24;;;;;;;;;;;26.30;62.10;;;;;;5018898;28;19913;-71
2022/03/27 11:53:50;;;;;;;;;;;26.70;62.10;;;;;;5037225;28;20273;-72
2022/03/27 11:56:16;;;;;;;;;;;27.00;60.10;;;;;;5030560;28;19909;-70
2022/03/27 11:58:42;;;;;;;;;;;27.20;59.50;;;;;;5012535;28;19910;-71
2022/03/27 12:01:09;;;;;;;;;;;27.10;58.60;;;;;;5029658;28;19920;-69
2022/03/27 12:03:35;;;;;;;;;;;26.90;57.90;;;;;;5017949;28;20239;-66
2022/03/27 12:06:08;;;;;;;;;;;27.10;58.40;;;;;;5018927;28;19924;-66
2022/03/27 12:08:38;;;;;;;;;;;27.20;58.70;;;;;;5027809;28;20011;-67
2022/03/27 12:11:06;;;;;;;;;;;27.30;58.30;;;;;;5034281;28;19917;-69
2022/03/27 12:13:36;;;;;;;;;;;27.40;59.30;;;;;;5030617;28;19909;-66
2022/03/27 12:16:01;;;;;;;;;;;27.30;58.00;;;;;;5035347;28;19915;-58
2022/03/27 12:18:28;;;;;;;;;;;27.30;58.10;;;;;;5053803;28;20051;-58
2022/03/27 12:20:53;;;;;;;;;;;27.10;58.40;;;;;;5053572;28;20077;-58
2022/03/27 12:23:24;;;;;;;;;;;27.10;58.60;;;;;;5035927;28;19909;-58
2022/03/27 12:25:56;;;;;;;;;;;26.80;57.70;;;;;;5034514;28;20390;-57
2022/03/27 12:31:17;;;;;;;;;;;26.60;58.40;;;;;;5052452;28;19935;-57
2022/03/27 12:33:43;;;;;;;;;;;26.20;59.60;;;;;;5053163;28;19924;-58
2022/03/27 12:36:10;;;;;;;;;;;26.10;60.50;;;;;;5052570;28;19917;-58
2022/03/27 12:38:36;;;;;;;;;;;26.50;59.50;;;;;;5053320;28;20270;-59
2022/03/27 12:41:04;;;;;;;;;;;26.80;58.80;;;;;;5052142;28;19909;-58
2022/03/27 12:43:30;;;;;;;;;;;26.30;59.40;;;;;;5052952;28;19970;-58
2022/03/27 12:45:56;;;;;;;;;;;26.70;59.60;;;;;;5034446;28;19912;-58
2022/03/27 12:48:23;;;;;;;;;;;26.90;59.90;;;;;;5053082;28;20012;-58
2022/03/27 12:50:49;;;;;;;;;;;26.90;60.50;;;;;;5032770;28;19925;-58
2022/03/27 12:53:20;;;;;;;;;;;27.10;59.30;;;;;;5045598;28;19920;-58
2022/03/27 12:55:48;;;;;;;;;;;27.30;59.60;;;;;;5048674;28;19945;-58
2022/03/27 12:58:35;;;;;;;;;;;27.40;58.90;;;;;;5034088;28;19931;-58
2022/03/27 13:01:10;;;;;;;;;;;27.40;60.10;;;;;;5034135;28;19909;-59
2022/03/27 13:03:37;;;;;;;;;;;27.50;59.30;;;;;;5048376;28;20362;-59
2022/03/27 13:06:04;;;;;;;;;;;27.40;58.80;;;;;;5026649;28;20003;-57
2022/03/27 13:08:37;;;;;;;;;;;27.10;59.40;;;;;;5042702;28;19916;-58
2022/03/27 13:11:12;;;;;;;;;;;27.00;61.20;;;;;;5039006;28;20200;-58
2022/03/27 13:13:41;;;;;;;;;;;27.20;59.50;;;;;;5015056;28;19996;-59
2022/03/27 13:16:21;;;;;;;;;;;26.80;60.80;;;;;;5023069;28;19913;-58
2022/03/27 13:19:02;;;;;;;;;;;27.00;59.60;;;;;;5023434;28;19909;-58
2022/03/27 13:21:29;;;;;;;;;;;27.00;60.00;;;;;;5034306;28;20326;-58
2022/03/27 13:23:54;;;;;;;;;;;27.20;59.50;;;;;;5017630;28;19909;-58
2022/03/27 13:26:21;;;;;;;;;;;27.10;59.40;;;;;;5051964;28;19909;-58
2022/03/27 13:28:46;;;;;;;;;;;26.70;60.80;;;;;;5051934;28;19960;-58
2022/03/27 13:31:12;;;;;;;;;;;27.00;59.60;;;;;;5051356;28;20385;-58
2022/03/27 13:33:38;;;;;;;;;;;27.00;60.10;;;;;;5052192;28;19917;-59
2022/03/27 13:36:04;;;;;;;;;;;27.00;60.50;;;;;;5032989;28;20006;-57
2022/03/27 13:38:30;;;;;;;;;;;27.20;60.20;;;;;;5052018;28;20415;-58
2022/03/27 13:43:39;;;;;;;;;;;27.10;60.60;;;;;;5051561;28;19915;-58
2022/03/27 13:46:05;;;;;;;;;;;27.00;61.20;;;;;;5050900;28;19909;-57
2022/03/27 13:48:30;;;;;;;;;;;27.20;61.60;;;;;;5051060;28;19928;-58
2022/03/27 13:50:56;;;;;;;;;;;26.80;61.00;;;;;;5051109;28;20476;-57
2022/03/27 13:53:22;;;;;;;;;;;26.10;61.60;;;;;;5033187;28;19954;-59
2022/03/27 13:55:47;;;;;;;;;;;26.30;61.70;;;;;;5050868;28;20046;-59
2022/03/27 13:58:13;;;;;;;;;;;26.40;61.80;;;;;;5050596;28;19912;-58
2022/03/27 14:00:38;;;;;;;;;;;26.40;61.50;;;;;;5051044;28;19994;-59
2022/03/27 14:03:04;;;;;;;;;;;26.70;61.20;;;;;;5049989;28;19967;-58
2022/03/27 14:05:30;;;;;;;;;;;26.80;60.90;;;;;;5032933;28;19962;-59
2022/03/27 14:07:55;;;;;;;;;;;26.70;60.70;;;;;;5050527;28;20027;-59
2022/03/27 14:10:23;;;;;;;;;;;26.90;62.10;;;;;;5032802;28;20203;-59
2022/03/27 14:12:49;;;;;;;;;;;26.70;60.70;;;;;;5050991;28;20043;-58
2022/03/27 14:15:15;;;;;;;;;;;26.10;61.80;;;;;;5016032;28;19948;-58
2022/03/27 14:17:40;;;;;;;;;;;26.10;61.60;;;;;;5051024;28;19916;-59
2022/03/27 14:20:06;;;;;;;;;;;26.00;62.40;;;;;;5032238;28;19909;-59
2022/03/27 14:22:32;;;;;;;;;;;26.00;62.30;;;;;;5050496;28;19908;-58
2022/03/27 14:24:57;;;;;;;;;;;25.80;62.40;;;;;;5049928;28;19908;-59
2022/03/27 14:27:23;;;;;;;;;;;26.00;62.30;;;;;;5050466;28;20389;-59
2022/03/27 14:29:48;;;;;;;;;;;26.10;61.90;;;;;;5049869;28;19917;-59
2022/03/27 14:32:14;;;;;;;;;;;26.20;61.80;;;;;;5050083;28;19913;-59